createdAt,value
2018-09-27T00:01:26.372Z,100306.77
2018-09-27T00:03:54.576Z,100309.17
2018-09-27T00:06:22.859Z,100307.14
2018-09-27T00:08:51.159Z,100307.16
2018-09-27T00:11:19.532Z,100298.64
2018-09-27T00:13:47.956Z,100300.61
2018-09-27T00:16:16.167Z,100303.30
2018-09-27T00:18:44.447Z,100302.52
2018-09-27T00:21:12.620Z,100301.32
2018-09-27T00:23:40.882Z,100306.77
2018-09-27T00:26:09.289Z,100305.96
2018-09-27T00:28:37.608Z,100300.34
2018-09-27T00:31:06.084Z,100292.08
2018-09-27T00:33:34.422Z,100296.07
2018-09-27T00:36:02.804Z,100300.88
2018-09-27T00:38:31.179Z,100300.30
2018-09-27T00:40:59.506Z,100301.70
2018-09-27T00:43:27.801Z,100296.41
2018-09-27T00:45:56.036Z,100295.56
2018-09-27T00:48:24.267Z,100290.37
2018-09-27T00:50:52.468Z,100282.62
2018-09-27T00:53:20.673Z,100286.31
2018-09-27T00:55:48.938Z,100285.52
2018-09-27T00:58:17.127Z,100288.03
2018-09-27T01:00:45.340Z,100288.27
2018-09-27T01:03:13.644Z,100292.08
2018-09-27T01:05:41.959Z,100291.67
2018-09-27T01:08:10.193Z,100289.85
2018-09-27T01:10:38.419Z,100299.20
2018-09-27T01:13:06.788Z,100295.45
2018-09-27T01:15:34.987Z,100289.16
2018-09-27T01:18:04.146Z,100286.55
2018-09-27T01:20:32.351Z,100281.83
2018-09-27T01:23:00.580Z,100276.84
2018-09-27T01:25:28.968Z,100270.72
2018-09-27T01:27:57.244Z,100265.87
2018-09-27T01:30:25.546Z,100262.56
2018-09-27T01:32:53.998Z,100257.85
2018-09-27T01:35:22.265Z,100255.95
2018-09-27T01:37:50.555Z,100264.86
2018-09-27T01:40:18.824Z,100268.91
2018-09-27T01:42:47.192Z,100258.16
2018-09-27T01:45:15.934Z,100258.59
2018-09-27T01:47:44.311Z,100262.28
2018-09-27T01:50:12.606Z,100269.88
2018-09-27T01:52:40.837Z,100263.30
2018-09-27T01:55:09.257Z,100257.92
2018-09-27T01:57:37.508Z,100261.71
2018-09-27T02:00:05.795Z,100262.51
2018-09-27T02:02:33.999Z,100258.03
2018-09-27T02:05:02.239Z,100256.44
2018-09-27T02:07:30.539Z,100254.84
2018-09-27T02:09:58.795Z,100256.43
2018-09-27T02:12:27.065Z,100250.68
2018-09-27T02:14:55.381Z,100249.19
2018-09-27T02:17:23.738Z,100253.56
2018-09-27T02:19:52.058Z,100250.36
2018-09-27T02:22:20.451Z,100242.03
2018-09-27T02:24:48.811Z,100231.70
2018-09-27T02:27:17.090Z,100229.28
2018-09-27T02:29:45.337Z,100236.65
2018-09-27T02:32:13.586Z,100226.55
2018-09-27T02:34:41.924Z,100231.36
2018-09-27T02:37:10.247Z,100228.17
2018-09-27T02:39:38.631Z,100229.83
2018-09-27T02:42:07.019Z,100218.84
2018-09-27T02:44:35.327Z,100217.13
2018-09-27T02:47:03.595Z,100209.49
2018-09-27T02:49:31.843Z,100209.81
2018-09-27T02:52:00.103Z,100204.08
2018-09-27T02:54:28.323Z,100198.28
2018-09-27T02:56:56.646Z,100193.56
2018-09-27T02:59:24.882Z,100190.03
2018-09-27T03:01:53.129Z,100188.08
2018-09-27T03:04:21.419Z,100194.28
2018-09-27T03:06:49.667Z,100191.92
2018-09-27T03:09:18.177Z,100188.78
2018-09-27T03:11:46.410Z,100186.90
2018-09-27T03:14:14.640Z,100187.41
2018-09-27T03:16:42.883Z,100191.32
2018-09-27T03:19:11.150Z,100199.05
2018-09-27T03:21:39.436Z,100202.45
2018-09-27T03:24:07.657Z,100203.91
2018-09-27T03:26:35.991Z,100193.92
2018-09-27T03:29:04.256Z,100184.77
2018-09-27T03:31:32.522Z,100184.28
2018-09-27T03:34:00.842Z,100181.13
2018-09-27T03:36:29.128Z,100186.17
2018-09-27T03:38:57.458Z,100176.70
2018-09-27T03:41:25.778Z,100183.39
2018-09-27T03:43:53.947Z,100174.08
2018-09-27T03:46:22.166Z,100172.33
2018-09-27T03:48:50.409Z,100178.44
2018-09-27T03:51:18.690Z,100183.20
2018-09-27T03:53:47.047Z,100173.77
2018-09-27T03:56:15.230Z,100171.67
2018-09-27T03:58:43.436Z,100176.77
2018-09-27T04:01:11.748Z,100167.92
2018-09-27T04:03:40.024Z,100156.61
2018-09-27T04:06:08.331Z,100154.28
2018-09-27T04:08:36.599Z,100158.33
2018-09-27T04:11:04.926Z,100151.30
2018-09-27T04:13:33.177Z,100147.38
2018-09-27T04:16:01.921Z,100138.41
2018-09-27T04:18:30.228Z,100147.96
2018-09-27T04:20:58.725Z,100142.81
2018-09-27T04:23:26.947Z,100147.89
2018-09-27T04:25:55.183Z,100150.62
2018-09-27T04:28:23.434Z,100152.31
2018-09-27T04:30:51.698Z,100143.60
2018-09-27T04:33:19.907Z,100153.16
2018-09-27T04:35:48.704Z,100142.23
2018-09-27T04:38:16.944Z,100148.94
2018-09-27T04:40:45.285Z,100147.22
2018-09-27T04:43:13.642Z,100143.24
2018-09-27T04:45:48.446Z,100127.34
2018-09-27T04:48:16.696Z,100129.44
2018-09-27T04:50:45.009Z,100135.16
2018-09-27T04:53:13.227Z,100148.64
2018-09-27T04:55:41.465Z,100144.09
2018-09-27T04:58:09.934Z,100136.77
2018-09-27T05:00:38.319Z,100145.45
2018-09-27T05:03:06.879Z,100145.82
2018-09-27T05:05:35.163Z,100141.45
2018-09-27T05:08:03.543Z,100133.66
2018-09-27T05:10:31.927Z,100138.48
2018-09-27T05:13:00.225Z,100142.62
2018-09-27T05:15:28.541Z,100144.27
2018-09-27T05:17:56.800Z,100141.44
2018-09-27T05:20:25.242Z,100143.38
2018-09-27T05:22:53.610Z,100147.39
2018-09-27T05:25:21.931Z,100148.42
2018-09-27T05:27:50.252Z,100144.04
2018-09-27T05:30:18.492Z,100142.94
2018-09-27T05:32:46.838Z,100145.13
2018-09-27T05:35:15.179Z,100143.63
2018-09-27T05:37:43.546Z,100139.08
2018-09-27T05:40:11.892Z,100145.66
2018-09-27T05:42:40.154Z,100139.22
2018-09-27T05:45:08.892Z,100137.75
2018-09-27T05:47:37.207Z,100137.23
2018-09-27T05:50:06.636Z,100141.08
2018-09-27T05:52:34.928Z,100145.35
2018-09-27T05:55:03.280Z,100147.00
2018-09-27T05:57:31.700Z,100142.33
2018-09-27T06:00:00.150Z,100145.00
2018-09-27T06:02:28.585Z,100134.56
2018-09-27T06:04:56.927Z,100136.89
2018-09-27T06:07:25.264Z,100133.91
2018-09-27T06:09:53.614Z,100145.70
2018-09-27T06:12:21.961Z,100137.42
2018-09-27T06:14:50.307Z,100137.94
2018-09-27T06:17:18.633Z,100141.63
2018-09-27T06:19:47.003Z,100141.17
2018-09-27T06:22:15.306Z,100148.61
2018-09-27T06:24:43.616Z,100138.50
2018-09-27T06:27:11.947Z,100142.08
2018-09-27T06:29:40.229Z,100148.30
2018-09-27T06:32:08.566Z,100144.31
2018-09-27T06:34:36.931Z,100146.54
2018-09-27T06:37:05.244Z,100141.73
2018-09-27T06:39:33.499Z,100140.05
2018-09-27T06:42:01.849Z,100139.64
2018-09-27T06:44:30.165Z,100138.44
2018-09-27T06:46:58.547Z,100136.53
2018-09-27T06:49:26.751Z,100133.34
2018-09-27T06:51:55.079Z,100128.19
2018-09-27T06:54:23.351Z,100126.62
2018-09-27T06:56:51.783Z,100131.03
2018-09-27T06:59:20.183Z,100127.66
2018-09-27T07:01:48.450Z,100130.16
2018-09-27T07:04:16.964Z,100124.39
2018-09-27T07:06:45.235Z,100136.02
2018-09-27T07:09:14.168Z,100130.95
2018-09-27T07:11:42.467Z,100137.98
2018-09-27T07:14:11.457Z,100134.05
2018-09-27T07:16:39.831Z,100133.39
2018-09-27T07:19:08.778Z,100138.42
2018-09-27T07:21:37.075Z,100131.92
2018-09-27T07:24:05.379Z,100128.70
2018-09-27T07:26:33.723Z,100123.44
2018-09-27T07:29:02.119Z,100117.98
2018-09-27T07:31:30.448Z,100120.54
2018-09-27T07:33:58.683Z,100109.62
2018-09-27T07:36:26.982Z,100120.48
2018-09-27T07:38:55.245Z,100120.98
2018-09-27T07:41:23.535Z,100118.22
2018-09-27T07:43:51.863Z,100112.62
2018-09-27T07:46:20.155Z,100111.11
2018-09-27T07:48:48.369Z,100108.92
2018-09-27T07:51:16.717Z,100105.39
2018-09-27T07:53:45.023Z,100105.95
2018-09-27T07:56:13.298Z,100104.25
2018-09-27T07:58:41.656Z,100095.28
2018-09-27T08:01:10.027Z,100100.05
2018-09-27T08:03:38.468Z,100093.88
2018-09-27T08:06:06.936Z,100093.11
2018-09-27T08:08:35.296Z,100091.34
2018-09-27T08:11:03.760Z,100095.38
2018-09-27T08:13:32.100Z,100092.28
2018-09-27T08:16:00.461Z,100090.29
2018-09-27T08:18:28.871Z,100088.09
2018-09-27T08:20:57.258Z,100093.31
2018-09-27T08:23:25.473Z,100091.98
2018-09-27T08:25:53.731Z,100088.67
2018-09-27T08:28:22.115Z,100088.09
2018-09-27T08:30:50.503Z,100084.03
2018-09-27T08:33:18.826Z,100086.92
2018-09-27T08:35:47.347Z,100086.52
2018-09-27T08:38:16.163Z,100075.38
2018-09-27T08:40:44.324Z,100071.81
2018-09-27T08:43:12.743Z,100070.55
2018-09-27T08:45:41.228Z,100070.10
2018-09-27T08:48:09.635Z,100059.14
2018-09-27T08:50:37.951Z,100058.09
2018-09-27T08:53:06.475Z,100062.89
2018-09-27T08:55:35.021Z,100057.28
2018-09-27T08:58:03.303Z,100058.21
2018-09-27T09:00:31.623Z,100053.02
2018-09-27T09:02:59.985Z,100044.88
2018-09-27T09:05:28.287Z,100050.05
2018-09-27T09:07:56.592Z,100044.53
2018-09-27T09:10:24.867Z,100031.47
2018-09-27T09:12:53.309Z,100028.67
2018-09-27T09:15:21.805Z,100024.09
2018-09-27T09:17:50.107Z,100019.87
2018-09-27T09:20:18.455Z,100022.85
2018-09-27T09:22:47.352Z,100013.77
2018-09-27T09:25:15.687Z,100006.91
2018-09-27T09:27:43.949Z,100006.58
2018-09-27T09:30:12.320Z,99995.48
2018-09-27T09:32:40.530Z,99998.23
2018-09-27T09:35:08.875Z,99996.09
2018-09-27T09:37:37.170Z,99991.30
2018-09-27T09:40:05.732Z,99986.67
2018-09-27T09:42:34.059Z,99986.13
2018-09-27T09:45:02.528Z,99988.09
2018-09-27T09:47:30.770Z,99982.36
2018-09-27T09:49:59.117Z,99985.49
2018-09-27T09:52:27.421Z,99985.27
2018-09-27T09:54:55.764Z,99983.25
2018-09-27T09:57:24.173Z,99979.60
2018-09-27T09:59:52.479Z,99972.42
2018-09-27T10:02:20.728Z,99967.84
2018-09-27T10:04:48.960Z,99964.20
2018-09-27T10:07:17.390Z,99964.00
2018-09-27T10:09:45.697Z,99949.78
2018-09-27T10:12:14.071Z,99948.36
2018-09-27T10:14:42.379Z,99940.78
2018-09-27T10:17:10.643Z,99938.52
2018-09-27T10:19:38.963Z,99934.76
2018-09-27T10:22:07.511Z,99925.59
2018-09-27T10:24:35.796Z,99925.90
2018-09-27T10:27:04.120Z,99921.88
2018-09-27T10:29:32.412Z,99921.85
2018-09-27T10:32:00.788Z,99923.15
2018-09-27T10:34:29.139Z,99916.30
2018-09-27T10:36:57.435Z,99913.31
2018-09-27T10:39:25.808Z,99917.11
2018-09-27T10:41:54.202Z,99913.34
2018-09-27T10:44:22.563Z,99908.21
2018-09-27T10:46:50.926Z,99902.45
2018-09-27T10:49:19.230Z,99903.91
2018-09-27T10:51:47.563Z,99901.00
2018-09-27T10:54:15.883Z,99899.17
2018-09-27T10:56:44.144Z,99892.50
2018-09-27T10:59:12.438Z,99888.05
2018-09-27T11:01:40.734Z,99888.66
2018-09-27T11:04:09.143Z,99883.68
2018-09-27T11:06:37.487Z,99870.27
2018-09-27T11:09:07.919Z,99875.48
2018-09-27T11:11:36.314Z,99873.39
2018-09-27T11:14:04.468Z,99870.94
2018-09-27T11:16:32.772Z,99870.50
2018-09-27T11:19:01.051Z,99861.27
2018-09-27T11:21:29.299Z,99861.11
2018-09-27T11:23:57.811Z,99858.74
2018-09-27T11:26:26.133Z,99850.27
2018-09-27T11:28:59.856Z,99849.14
2018-09-27T11:32:36.315Z,99852.17
2018-09-27T11:35:04.544Z,99837.67
2018-09-27T11:37:32.825Z,99840.95
2018-09-27T11:40:01.133Z,99826.77
2018-09-27T11:42:29.424Z,99818.28
2018-09-27T11:44:57.634Z,99807.78
2018-09-27T11:47:26.022Z,99815.81
2018-09-27T11:49:54.552Z,99810.13
2018-09-27T11:52:22.905Z,99806.60
2018-09-27T11:54:51.211Z,99802.63
2018-09-27T11:57:19.700Z,99803.97
2018-09-27T11:59:48.012Z,99794.59
2018-09-27T12:02:16.300Z,99791.08
2018-09-27T12:04:44.604Z,99788.92
2018-09-27T12:07:13.424Z,99776.84
2018-09-27T12:09:41.896Z,99773.32
2018-09-27T12:12:10.375Z,99776.67
2018-09-27T12:14:38.705Z,99767.92
2018-09-27T12:17:06.988Z,99763.05
2018-09-27T12:19:35.306Z,99766.94
2018-09-27T12:22:03.513Z,99763.91
2018-09-27T12:24:31.829Z,99755.34
2018-09-27T12:27:00.326Z,99752.94
2018-09-27T12:29:28.520Z,99749.09
2018-09-27T12:31:56.893Z,99749.57
2018-09-27T12:34:25.433Z,99739.72
2018-09-27T12:36:53.718Z,99734.91
2018-09-27T12:39:22.005Z,99725.38
2018-09-27T12:41:50.362Z,99718.52
2018-09-27T12:44:18.552Z,99714.06
2018-09-27T12:46:46.874Z,99715.82
2018-09-27T12:49:15.151Z,99710.25
2018-09-27T12:51:43.463Z,99711.78
2018-09-27T12:54:11.547Z,99698.25
2018-09-27T12:56:39.818Z,99698.82
2018-09-27T12:59:08.273Z,99676.25
2018-09-27T13:01:36.844Z,99686.59
2018-09-27T13:04:05.263Z,99680.81
2018-09-27T13:06:33.557Z,99680.59
2018-09-27T13:09:02.010Z,99675.88
2018-09-27T13:11:30.184Z,99673.03
2018-09-27T13:13:58.480Z,99666.08
2018-09-27T13:16:26.707Z,99659.08
2018-09-27T13:18:57.940Z,99655.69
2018-09-27T13:21:23.248Z,99655.63
2018-09-27T13:23:51.526Z,99655.09
2018-09-27T13:26:19.702Z,99647.12
2018-09-27T13:28:47.992Z,99643.45
2018-09-27T13:31:16.496Z,99636.73
2018-09-27T13:33:44.676Z,99631.41
2018-09-27T13:36:12.980Z,99629.91
2018-09-27T13:38:41.288Z,99623.88
2018-09-27T13:41:09.565Z,99620.20
2018-09-27T13:43:37.913Z,99621.78
2018-09-27T13:46:06.385Z,99614.53
2018-09-27T13:48:34.757Z,99613.37
2018-09-27T13:51:03.079Z,99611.08
2018-09-27T13:53:31.384Z,99606.21
2018-09-27T13:55:59.760Z,99598.67
2018-09-27T13:58:28.059Z,99594.86
2018-09-27T14:00:56.397Z,99589.86
2018-09-27T14:03:24.730Z,99587.70
2018-09-27T14:05:52.878Z,99587.95
2018-09-27T14:08:21.227Z,99585.94
2018-09-27T14:10:49.556Z,99584.27
2018-09-27T14:13:17.925Z,99580.77
2018-09-27T14:15:46.330Z,99577.47
2018-09-27T14:18:14.507Z,99579.02
2018-09-27T14:20:42.916Z,99571.16
2018-09-27T14:23:11.140Z,99564.05
2018-09-27T14:25:39.562Z,99564.88
2018-09-27T14:28:07.700Z,99561.67
2018-09-27T14:30:36.060Z,99559.05
2018-09-27T14:33:04.277Z,99555.33
2018-09-27T14:35:32.630Z,99550.42
2018-09-27T14:38:00.870Z,99549.29
2018-09-27T14:40:29.135Z,99548.81
2018-09-27T14:42:57.639Z,99537.12
2018-09-27T14:45:25.940Z,99535.34
2018-09-27T14:47:54.324Z,99529.47
2018-09-27T14:50:22.494Z,99525.53
2018-09-27T14:52:50.760Z,99526.42
2018-09-27T14:55:19.202Z,99523.45
2018-09-27T14:57:47.481Z,99519.72
2018-09-27T15:00:15.723Z,99519.06
2018-09-27T15:02:43.968Z,99516.92
2018-09-27T15:05:12.261Z,99510.11
2018-09-27T15:07:40.626Z,99513.84
2018-09-27T15:10:09.021Z,99514.72
2018-09-27T15:12:37.295Z,99509.61
2018-09-27T15:15:06.327Z,99502.56
2018-09-27T15:17:34.643Z,99500.91
2018-09-27T15:20:02.957Z,99499.47
2018-09-27T15:22:31.279Z,99497.67
2018-09-27T15:24:59.591Z,99498.70
2018-09-27T15:27:27.850Z,99488.92
2018-09-27T15:29:56.198Z,99485.48
2018-09-27T15:32:24.595Z,99483.94
2018-09-27T15:34:52.840Z,99479.29
2018-09-27T15:37:21.168Z,99473.73
2018-09-27T15:39:49.488Z,99478.41
2018-09-27T15:42:17.759Z,99472.97
2018-09-27T15:44:46.140Z,99470.98
2018-09-27T15:47:14.528Z,99472.12
2018-09-27T15:49:42.897Z,99467.31
2018-09-27T15:52:11.167Z,99473.29
2018-09-27T15:54:39.349Z,99466.20
2018-09-27T15:57:07.745Z,99457.27
2018-09-27T15:59:35.936Z,99458.01
2018-09-27T16:02:04.458Z,99455.48
2018-09-27T16:04:32.725Z,99454.41
2018-09-27T16:07:01.088Z,99449.31
2018-09-27T16:09:29.363Z,99444.56
2018-09-27T16:11:57.813Z,99446.02
2018-09-27T16:14:26.050Z,99439.34
2018-09-27T16:16:54.375Z,99440.53
2018-09-27T16:19:22.588Z,99429.06
2018-09-27T16:21:50.846Z,99443.47
2018-09-27T16:24:19.140Z,99442.72
2018-09-27T16:26:47.404Z,99440.07
2018-09-27T16:29:15.634Z,99439.73
2018-09-27T16:31:43.968Z,99423.70
2018-09-27T16:34:12.320Z,99434.61
2018-09-27T16:36:40.652Z,99431.14
2018-09-27T16:39:09.909Z,99432.38
2018-09-27T16:41:38.608Z,99428.96
2018-09-27T16:44:07.107Z,99429.63
2018-09-27T16:46:35.672Z,99425.19
2018-09-27T16:49:04.516Z,99421.00
2018-09-27T16:51:32.739Z,99423.39
2018-09-27T16:54:01.064Z,99420.25
2018-09-27T16:56:29.384Z,99419.81
2018-09-27T16:58:57.646Z,99428.38
2018-09-27T17:02:05.562Z,99429.24
2018-09-27T17:04:33.868Z,99430.48
2018-09-27T17:07:02.218Z,99429.13
2018-09-27T17:09:30.420Z,99426.75
2018-09-27T17:11:59.301Z,99420.39
2018-09-27T17:14:27.576Z,99430.67
2018-09-27T17:16:55.856Z,99424.05
2018-09-27T17:19:24.172Z,99419.35
2018-09-27T17:21:52.492Z,99412.61
2018-09-27T17:24:20.888Z,99418.70
2018-09-27T17:26:49.159Z,99419.66
2018-09-27T17:29:17.420Z,99415.92
2018-09-27T17:31:45.771Z,99420.02
2018-09-27T17:34:13.947Z,99419.73
2018-09-27T17:36:42.230Z,99420.66
2018-09-27T17:39:10.547Z,99420.33
2018-09-27T17:41:38.884Z,99421.34
2018-09-27T17:44:07.442Z,99420.56
2018-09-27T17:46:35.940Z,99423.92
2018-09-27T17:49:04.204Z,99425.25
2018-09-27T17:51:32.494Z,99428.45
2018-09-27T17:54:00.907Z,99433.38
2018-09-27T17:56:29.160Z,99433.59
2018-09-27T17:58:57.590Z,99434.41
2018-09-27T18:01:25.837Z,99435.99
2018-09-27T18:03:54.261Z,99439.52
2018-09-27T18:06:22.499Z,99436.92
2018-09-27T18:08:50.923Z,99440.52
2018-09-27T18:11:19.356Z,99441.09
2018-09-27T18:13:47.926Z,99435.33
2018-09-27T18:16:16.435Z,99438.23
2018-09-27T18:18:44.809Z,99440.06
2018-09-27T18:21:13.120Z,99433.51
2018-09-27T18:23:41.656Z,99430.75
2018-09-27T18:26:10.083Z,99434.67
2018-09-27T18:28:38.544Z,99430.08
2018-09-27T18:31:07.040Z,99430.97
2018-09-27T18:33:35.419Z,99424.78
2018-09-27T18:36:03.715Z,99425.48
2018-09-27T18:38:32.001Z,99427.92
2018-09-27T18:41:00.257Z,99423.69
2018-09-27T18:43:28.515Z,99421.52
2018-09-27T18:45:57.053Z,99428.87
2018-09-27T18:48:25.282Z,99419.95
2018-09-27T18:50:53.708Z,99420.38
2018-09-27T18:53:22.886Z,99421.45
2018-09-27T18:55:51.110Z,99419.63
2018-09-27T18:58:19.359Z,99421.31
2018-09-27T19:00:47.724Z,99418.64
2018-09-27T19:03:15.949Z,99420.22
2018-09-27T19:05:44.279Z,99416.25
2018-09-27T19:08:14.283Z,99421.00
2018-09-27T19:10:42.701Z,99418.77
2018-09-27T19:13:11.151Z,99422.31
2018-09-27T19:15:39.473Z,99418.91
2018-09-27T19:18:07.743Z,99416.93
2018-09-27T19:20:36.038Z,99412.91
2018-09-27T19:23:04.291Z,99415.25
2018-09-27T19:25:33.314Z,99415.00
2018-09-27T19:28:01.698Z,99413.48
2018-09-27T19:30:29.991Z,99414.03
2018-09-27T19:32:58.309Z,99406.61
2018-09-27T19:35:26.595Z,99400.03
2018-09-27T19:37:54.864Z,99399.70
2018-09-27T19:40:23.128Z,99399.27
2018-09-27T19:42:51.416Z,99395.70
2018-09-27T19:45:19.724Z,99401.02
2018-09-27T19:47:48.015Z,99397.86
2018-09-27T19:50:16.192Z,99395.64
2018-09-27T19:52:44.463Z,99400.95
2018-09-27T19:55:13.356Z,99397.63
2018-09-27T19:57:41.640Z,99400.65
2018-09-27T20:00:10.119Z,99395.94
2018-09-27T20:02:38.435Z,99394.05
2018-09-27T20:05:06.711Z,99401.02
2018-09-27T20:07:35.042Z,99399.79
2018-09-27T20:10:03.410Z,99393.68
2018-09-27T20:12:31.654Z,99389.47
2018-09-27T20:14:59.945Z,99391.28
2018-09-27T20:17:28.369Z,99395.63
2018-09-27T20:19:56.743Z,99395.77
2018-09-27T20:22:25.056Z,99394.58
2018-09-27T20:24:53.460Z,99392.69
2018-09-27T20:27:21.755Z,99391.39
2018-09-27T20:29:49.979Z,99399.09
2018-09-27T20:32:18.207Z,99394.41
2018-09-27T20:34:46.504Z,99396.92
2018-09-27T20:37:14.909Z,99396.58
2018-09-27T20:39:43.181Z,99400.03
2018-09-27T20:42:11.363Z,99403.40
2018-09-27T20:44:39.683Z,99404.25
2018-09-27T20:47:07.900Z,99404.97
2018-09-27T20:49:37.116Z,99403.87
2018-09-27T20:52:05.410Z,99393.09
2018-09-27T20:54:36.584Z,99396.47
2018-09-27T20:57:04.805Z,99395.62
2018-09-27T20:59:33.105Z,99396.36
2018-09-27T21:02:01.453Z,99393.13
2018-09-27T21:04:29.739Z,99394.44
2018-09-27T21:06:57.974Z,99390.48
2018-09-27T21:09:26.297Z,99394.44
2018-09-27T21:11:54.577Z,99393.47
2018-09-27T21:14:22.939Z,99392.63
2018-09-27T21:16:51.234Z,99392.27
2018-09-27T21:19:19.480Z,99383.89
2018-09-27T21:21:47.740Z,99388.06
2018-09-27T21:24:16.040Z,99377.04
2018-09-27T21:26:44.360Z,99383.63
2018-09-27T21:29:12.676Z,99380.02
2018-09-27T21:31:40.950Z,99377.97
2018-09-27T21:34:09.094Z,99372.70
2018-09-27T21:36:37.364Z,99380.26
2018-09-27T21:39:06.827Z,99374.99
2018-09-27T21:41:35.096Z,99374.86
2018-09-27T21:44:03.388Z,99374.59
2018-09-27T21:46:31.652Z,99371.09
2018-09-27T21:48:59.908Z,99374.32
2018-09-27T21:51:28.349Z,99367.47
2018-09-27T21:53:56.687Z,99369.62
2018-09-27T21:56:28.035Z,99370.38
2018-09-27T21:58:56.299Z,99369.59
2018-09-27T22:02:40.512Z,99368.94
2018-09-27T22:05:08.753Z,99365.21
2018-09-27T22:07:37.011Z,99361.34
2018-09-27T22:10:05.369Z,99362.19
2018-09-27T22:12:33.697Z,99361.00
2018-09-27T22:15:02.012Z,99361.95
2018-09-27T22:17:30.282Z,99354.98
2018-09-27T22:19:58.533Z,99351.61
2018-09-27T22:22:26.815Z,99348.83
2018-09-27T22:24:54.994Z,99353.14
2018-09-27T22:27:23.232Z,99346.69
2018-09-27T22:29:51.516Z,99347.86
2018-09-27T22:32:19.899Z,99344.23
2018-09-27T22:34:48.191Z,99343.26
2018-09-27T22:37:16.494Z,99340.08
2018-09-27T22:39:44.845Z,99335.88
2018-09-27T22:42:13.172Z,99337.92
2018-09-27T22:44:41.695Z,99334.91
2018-09-27T22:47:09.920Z,99337.20
2018-09-27T22:49:38.195Z,99331.58
2018-09-27T22:52:06.601Z,99337.66
2018-09-27T22:54:34.803Z,99334.30
2018-09-27T22:57:03.339Z,99328.77
2018-09-27T22:59:31.600Z,99328.66
2018-09-27T23:01:59.863Z,99327.67
2018-09-27T23:04:28.172Z,99334.52
2018-09-27T23:06:56.470Z,99331.77
2018-09-27T23:09:24.811Z,99328.02
2018-09-27T23:11:53.132Z,99332.34
2018-09-27T23:14:21.411Z,99324.42
2018-09-27T23:16:49.796Z,99329.31
2018-09-27T23:19:18.067Z,99325.59
2018-09-27T23:21:46.348Z,99327.96
2018-09-27T23:24:14.744Z,99322.47
2018-09-27T23:26:43.072Z,99323.98
2018-09-27T23:29:11.328Z,99320.02
2018-09-27T23:31:39.575Z,99318.92
2018-09-27T23:34:07.864Z,99319.89
2018-09-27T23:36:36.141Z,99318.05
2018-09-27T23:39:05.532Z,99315.41
2018-09-27T23:41:33.745Z,99322.45
2018-09-27T23:44:02.023Z,99311.78
2018-09-27T23:46:30.301Z,99314.73
2018-09-27T23:48:58.694Z,99309.59
2018-09-27T23:51:27.329Z,99320.41
2018-09-27T23:53:55.606Z,99309.47
2018-09-27T23:56:23.932Z,99319.26
2018-09-27T23:58:52.147Z,99304.91
